Impacts TAF Board INFO
FOR SITUATIONAL AWARENESS. NOT TO BE USED FOR FLIGHT PLANNING PURPOSES.
IDs:

KCSG - Columbus Arpt, GA, US

Issued at 1128 UTC 21 May 2018
Updated at 1313 UTC 21 May 2018
Potential Impact None Slight Moderate High
Time1251Z 21/14Z 21/15Z 21/16Z 21/17Z 21/18Z 21/19Z 21/20Z 21/21Z 21/22Z 21/23Z 22/00Z 22/01Z 22/02Z>>
Type OBS PRVL PRVL PRVL PRVL PRVL PRVL PRVL
  [TEMP]  
PRVL
  [TEMP]  
PRVL
  [TEMP]  
PRVL
  [TEMP]  
PRVL PRVL PRVL
VIS 10 >6 >6 >6 >6 >6 >6 >6
  [4]  
>6
  [4]  
>6
  [4]  
>6
  [4]  
>6 >6 >6
CIG 16 25 25 25 25 35 35 35
  [25]  
35
  [25]  
35
  [25]  
35
  [25]  
35 35 35
Cover OVC OVC OVC OVC OVC OVC OVC OVC
  [BKN]  
OVC
  [BKN]  
OVC
  [BKN]  
OVC
  [BKN]  
OVC OVC OVC
FltCat MVFR MVFR MVFR MVFR MVFR VFR VFR VFR
  [MVFR]  
VFR
  [MVFR]  
VFR
  [MVFR]  
VFR
  [MVFR]  
VFR VFR VFR
WX -- -- -- VCSH VCSH SHRA SHRA SHRA
  [TSRA]  
SHRA
  [TSRA]  
SHRA
  [TSRA]  
SHRA
  [TSRA]  
VCSH VCSH VCSH
WDir 30 100 100 100 100 100 100 100
[100]
100
[100]
100
[100]
100
[100]
110 110 110
WSpd 6 7 7 7 7 8 8 8
  [8]  
8
  [8]  
8
  [8]  
8
  [8]  
6 6 6
WGst -- -- -- -- -- -- -- --
  [--]  
--
  [--]  
--
  [--]  
--
  [--]  
-- -- --

Raw TAF
KCSG 211128Z 2112/2212 09005KT P6SM VCSH BKN025 OVC040
  FM211400 10007KT P6SM OVC025
  FM211600 10007KT P6SM VCSH OVC025
  FM211800 10008KT P6SM SHRA OVC035
  TEMPO 2120/2124 4SM TSRA BKN025CB
  FM220000 11006KT P6SM VCSH OVC035
  FM220500 12006KT P6SM OVC030
  FM221000 13005KT P6SM OVC007


Raw METAR
KCSG 211251Z AUTO 03006KT 10SM OVC016 21/18 A3013 RMK AO2 SLP199 T02060178
KCSG 211208Z AUTO 05005KT 10SM BKN019 BKN060 OVC070 20/18 A3013 RMK AO2 T02000178
KCSG 211151Z AUTO 07004KT 10SM SCT021 BKN050 OVC060 20/17 A3013 RMK AO2 RAE29 SLP197 P0001 60002 70002 T02000172 10211 20194 52010
KCSG 211129Z AUTO 07006KT 10SM SCT025 BKN042 OVC050 20/17 A3011 RMK AO2 RAE29 P0001 T02000172
KCSG 211051Z AUTO 11003KT 10SM -RA BKN027 BKN041 OVC070 19/18 A3012 RMK AO2 RAB41 SLP193 P0000 T01940178
KCSG 211044Z AUTO 11003KT 10SM -RA BKN027 OVC075 20/18 A3012 RMK AO2 RAB41 P0000 T02000178

METAR Board
Radar Display
Forecast Discussion

FOR SITUATIONAL AWARENESS. NOT TO BE USED FOR FLIGHT PLANNING PURPOSES.